createdAt,value
2019-01-21T00:02:22.855Z,36.40
2019-01-21T00:07:24.238Z,36.40
2019-01-21T00:12:25.570Z,36.40
2019-01-21T00:17:26.970Z,36.30
2019-01-21T00:22:28.318Z,36.20
2019-01-21T00:27:29.665Z,36.10
2019-01-21T00:32:31.060Z,36.20
2019-01-21T00:37:32.495Z,36.00
2019-01-21T00:42:33.886Z,36.10
2019-01-21T00:47:35.230Z,36.00
2019-01-21T00:52:36.682Z,36.00
2019-01-21T00:57:38.182Z,36.40
2019-01-21T01:02:39.552Z,35.90
2019-01-21T01:07:41.103Z,36.00
2019-01-21T01:12:42.577Z,35.90
2019-01-21T01:17:43.918Z,36.40
2019-01-21T01:22:45.471Z,36.00
2019-01-21T01:27:46.947Z,36.00
2019-01-21T01:32:48.347Z,35.80
2019-01-21T01:37:49.678Z,35.90
2019-01-21T01:42:51.175Z,36.00
2019-01-21T01:47:57.449Z,35.80
2019-01-21T01:52:59.178Z,35.80
2019-01-21T01:58:00.719Z,35.70
2019-01-21T02:03:02.536Z,35.70
2019-01-21T02:08:04.021Z,35.70
2019-01-21T02:13:05.712Z,35.60
2019-01-21T02:18:07.243Z,36.30
2019-01-21T02:23:12.577Z,35.60
2019-01-21T02:28:35.121Z,35.50
2019-01-21T02:34:05.087Z,35.50
2019-01-21T02:39:21.468Z,35.60
2019-01-21T02:44:45.076Z,35.50
2019-01-21T02:50:16.775Z,35.40
2019-01-21T02:55:39.091Z,35.50
2019-01-21T03:01:03.909Z,35.50
2019-01-21T03:06:19.912Z,35.80
2019-01-21T03:12:02.998Z,35.70
2019-01-21T03:17:37.507Z,35.60
2019-01-21T03:23:02.381Z,35.70
2019-01-21T03:28:21.821Z,35.50
2019-01-21T03:33:37.861Z,35.40
2019-01-21T03:38:56.898Z,35.40
2019-01-21T03:44:09.711Z,35.40
2019-01-21T03:49:32.049Z,35.30
2019-01-21T03:54:33.933Z,35.30
2019-01-21T04:00:07.386Z,35.10
2019-01-21T04:05:18.333Z,35.10
2019-01-21T04:11:18.471Z,35.00
2019-01-21T04:16:31.380Z,35.10
2019-01-21T04:21:54.660Z,35.30
2019-01-21T04:27:23.152Z,35.40
2019-01-21T04:32:54.655Z,35.40
2019-01-21T04:38:01.818Z,35.30
2019-01-21T04:43:35.991Z,35.40
2019-01-21T04:49:04.343Z,35.20
2019-01-21T04:54:41.639Z,35.00
2019-01-21T04:59:51.434Z,35.00
2019-01-21T05:05:04.340Z,35.00
2019-01-21T05:10:32.507Z,35.10
2019-01-21T05:15:43.484Z,35.00
2019-01-21T05:21:21.275Z,35.00
2019-01-21T05:26:34.392Z,35.00
2019-01-21T05:32:02.841Z,34.80
2019-01-21T05:37:22.714Z,34.70
2019-01-21T05:42:41.514Z,34.90
2019-01-21T05:48:04.053Z,35.00
2019-01-21T05:53:17.351Z,35.00
2019-01-21T05:58:47.327Z,35.00
2019-01-21T06:04:37.007Z,35.00
2019-01-21T06:10:00.931Z,35.10
2019-01-21T06:15:23.513Z,35.10
2019-01-21T06:20:54.909Z,35.00
2019-01-21T06:26:32.214Z,34.90
2019-01-21T06:31:53.825Z,34.90
2019-01-21T06:37:21.828Z,34.90
2019-01-21T06:42:28.954Z,34.70
2019-01-21T06:47:54.159Z,35.40
2019-01-21T06:53:36.420Z,34.90
2019-01-21T06:58:52.411Z,34.70
2019-01-21T07:04:19.479Z,34.70
2019-01-21T07:10:06.511Z,34.80
2019-01-21T07:15:18.886Z,34.70
2019-01-21T07:20:55.864Z,34.90
2019-01-21T07:26:29.902Z,34.80
2019-01-21T07:31:39.805Z,35.00
2019-01-21T07:36:58.782Z,35.00
2019-01-21T07:42:17.584Z,34.80
2019-01-21T07:47:42.787Z,34.70
2019-01-21T07:53:08.063Z,34.70
2019-01-21T07:58:45.724Z,34.80
2019-01-21T08:04:04.605Z,34.70
2019-01-21T08:09:36.528Z,34.60
2019-01-21T08:14:46.449Z,34.90
2019-01-21T08:19:59.490Z,34.70
2019-01-21T08:25:23.019Z,35.00
2019-01-21T08:30:45.426Z,34.70
2019-01-21T08:35:56.503Z,34.70
2019-01-21T08:41:07.761Z,34.60
2019-01-21T08:46:26.791Z,34.70
2019-01-21T08:51:56.331Z,34.70
2019-01-21T08:57:09.128Z,34.90
2019-01-21T09:02:31.518Z,35.00
2019-01-21T09:07:53.455Z,35.00
2019-01-21T09:13:18.327Z,35.10
2019-01-21T09:18:39.959Z,35.10
2019-01-21T09:24:10.160Z,35.00
2019-01-21T09:29:35.125Z,34.90
2019-01-21T09:34:57.408Z,34.90
2019-01-21T09:40:27.723Z,34.90
2019-01-21T09:45:54.699Z,34.80
2019-01-21T09:51:01.540Z,34.80
2019-01-21T09:56:04.352Z,35.00
2019-01-21T10:01:07.753Z,34.80
2019-01-21T10:06:09.402Z,34.90
2019-01-21T10:11:16.594Z,34.90
2019-01-21T10:16:28.978Z,35.00
2019-01-21T10:21:50.539Z,35.00
2019-01-21T10:27:12.735Z,35.00
2019-01-21T10:32:55.203Z,35.50
2019-01-21T10:38:23.799Z,35.00
2019-01-21T10:44:08.725Z,35.00
2019-01-21T10:49:48.135Z,35.00
2019-01-21T10:55:29.703Z,35.00
2019-01-21T11:01:02.698Z,35.40
2019-01-21T11:06:09.762Z,35.00
2019-01-21T11:11:28.656Z,35.10
2019-01-21T11:16:44.710Z,35.00
2019-01-21T11:21:51.863Z,35.10
2019-01-21T11:27:04.731Z,35.00
2019-01-21T11:32:43.287Z,35.00
2019-01-21T11:38:20.847Z,35.00
2019-01-21T11:43:46.179Z,35.00
2019-01-21T11:49:28.583Z,34.90
2019-01-21T11:55:09.434Z,35.00
2019-01-21T12:00:50.207Z,35.00
2019-01-21T12:05:56.580Z,34.90
2019-01-21T12:11:12.809Z,35.00
2019-01-21T12:16:47.480Z,35.00
2019-01-21T12:22:03.863Z,35.10
2019-01-21T12:27:32.386Z,35.00
2019-01-21T12:33:19.044Z,35.20
2019-01-21T12:38:54.971Z,35.30
2019-01-21T12:44:29.436Z,35.10
2019-01-21T12:49:55.036Z,35.00
2019-01-21T12:55:10.107Z,35.00
2019-01-21T13:00:41.646Z,35.00
2019-01-21T13:05:48.747Z,35.00
2019-01-21T13:10:55.848Z,35.00
2019-01-21T13:16:26.557Z,35.00
2019-01-21T13:22:22.753Z,35.00
2019-01-21T13:27:47.992Z,34.90
2019-01-21T13:33:27.220Z,34.80
2019-01-21T13:38:55.642Z,34.90
2019-01-21T13:44:14.330Z,34.90
2019-01-21T13:49:30.169Z,34.90
2019-01-21T13:54:40.259Z,34.90
2019-01-21T14:00:13.383Z,34.80
2019-01-21T14:05:47.965Z,35.00
2019-01-21T14:11:01.271Z,34.70
2019-01-21T14:16:41.321Z,34.70
2019-01-21T14:22:03.724Z,34.70
2019-01-21T14:27:36.832Z,34.60
2019-01-21T14:33:05.023Z,34.40
2019-01-21T14:38:15.275Z,34.30
2019-01-21T14:43:41.888Z,34.50
2019-01-21T14:49:21.275Z,34.50
2019-01-21T14:54:36.700Z,34.50
2019-01-21T15:00:13.640Z,34.70
2019-01-21T15:05:47.903Z,34.60
2019-01-21T15:11:31.159Z,34.60
2019-01-21T15:16:50.368Z,34.70
2019-01-21T15:22:06.085Z,34.60
2019-01-21T15:27:36.340Z,34.60
2019-01-21T15:32:46.631Z,35.30
2019-01-21T15:38:08.968Z,35.40
2019-01-21T15:43:31.226Z,34.80
2019-01-21T15:48:44.031Z,34.70
2019-01-21T15:54:19.662Z,34.60
2019-01-21T15:59:41.706Z,34.60
2019-01-21T16:05:19.465Z,34.70
2019-01-21T16:10:50.919Z,34.70
2019-01-21T16:16:23.800Z,34.40
2019-01-21T16:21:36.729Z,35.10
2019-01-21T16:26:43.816Z,34.60
2019-01-21T16:31:49.514Z,34.60
2019-01-21T16:36:59.771Z,34.70
2019-01-21T16:42:13.340Z,34.70
2019-01-21T16:47:14.922Z,34.80
2019-01-21T16:52:16.339Z,34.40
2019-01-21T16:57:17.731Z,34.10
2019-01-21T17:02:19.164Z,33.50
2019-01-21T17:07:20.638Z,33.30
2019-01-21T17:12:21.991Z,33.60
2019-01-21T17:17:23.403Z,33.50
2019-01-21T17:22:24.823Z,33.50
2019-01-21T17:27:26.227Z,33.80
2019-01-21T17:32:27.657Z,33.90
2019-01-21T17:37:29.075Z,34.30
2019-01-21T17:42:30.521Z,34.40
2019-01-21T17:47:31.950Z,34.30
2019-01-21T17:52:33.361Z,34.40
2019-01-21T17:57:35.662Z,34.90
2019-01-21T18:02:37.108Z,35.10
2019-01-21T18:07:39.599Z,35.20
2019-01-21T18:12:41.042Z,35.30
2019-01-21T18:17:42.439Z,35.30
2019-01-21T18:22:43.952Z,35.60
2019-01-21T18:27:45.543Z,35.60
2019-01-21T18:32:46.989Z,35.70
2019-01-21T18:37:49.709Z,35.60
2019-01-21T18:42:52.285Z,35.60
2019-01-21T18:47:53.742Z,35.70
2019-01-21T18:52:55.238Z,35.70
2019-01-21T18:57:56.763Z,35.80
2019-01-21T19:02:58.180Z,35.80
2019-01-21T19:07:59.611Z,35.70
2019-01-21T19:13:01.095Z,35.60
2019-01-21T19:18:03.164Z,35.40
2019-01-21T19:23:04.658Z,35.80
2019-01-21T19:28:06.034Z,35.80
2019-01-21T19:33:07.554Z,35.80
2019-01-21T19:38:09.046Z,35.80
2019-01-21T19:43:10.383Z,35.90
2019-01-21T19:48:11.783Z,36.00
2019-01-21T19:53:13.119Z,35.90
2019-01-21T19:58:14.602Z,36.00
2019-01-21T20:03:15.978Z,36.00
2019-01-21T20:08:17.454Z,36.10
2019-01-21T20:13:18.908Z,36.20
2019-01-21T20:18:21.297Z,35.80
2019-01-21T20:23:22.630Z,35.90
2019-01-21T20:28:24.030Z,36.00
2019-01-21T20:33:25.406Z,36.00
2019-01-21T20:38:26.847Z,35.90
2019-01-21T20:43:28.219Z,35.90
2019-01-21T20:48:29.712Z,36.00
2019-01-21T20:53:31.154Z,35.90
2019-01-21T20:58:33.556Z,36.00
2019-01-21T21:03:34.992Z,36.20
2019-01-21T21:08:36.360Z,36.50
2019-01-21T21:13:37.720Z,36.60
2019-01-21T21:18:39.093Z,36.60
2019-01-21T21:23:40.471Z,36.40
2019-01-21T21:28:41.896Z,36.50
2019-01-21T21:33:43.353Z,36.40
2019-01-21T21:38:44.723Z,36.40
2019-01-21T21:43:46.112Z,36.40
2019-01-21T21:48:47.479Z,36.30
2019-01-21T21:53:49.052Z,36.20
2019-01-21T21:58:50.414Z,36.40
2019-01-21T22:03:51.781Z,36.00
2019-01-21T22:08:53.111Z,36.10
2019-01-21T22:13:54.616Z,36.10
2019-01-21T22:18:55.941Z,36.00
2019-01-21T22:23:57.416Z,36.00
2019-01-21T22:28:59.112Z,36.10
2019-01-21T22:34:00.445Z,36.00
2019-01-21T22:39:05.344Z,36.10
2019-01-21T22:44:06.760Z,36.00
2019-01-21T22:49:08.178Z,36.00
2019-01-21T22:54:09.611Z,35.90
2019-01-21T22:59:10.943Z,36.00
2019-01-21T23:04:12.348Z,35.90
2019-01-21T23:09:13.775Z,35.80
2019-01-21T23:14:15.475Z,35.80
2019-01-21T23:19:16.810Z,35.90
2019-01-21T23:24:18.193Z,35.90
2019-01-21T23:29:19.586Z,35.80
2019-01-21T23:34:21.039Z,35.90
2019-01-21T23:39:22.372Z,35.80
2019-01-21T23:44:23.760Z,35.80
2019-01-21T23:49:25.238Z,35.50
2019-01-21T23:54:26.672Z,35.70
2019-01-21T23:59:28.066Z,35.70
